Time;durP1;ratioP1;P1;durP2;ratioP2;P2;SDS_P1;SDS_P2;PMS_P1;PMS_P2;Temp;Humidity;BMP_temperature;BMP_pressure;BME280_temperature;BME280_humidity;BME280_pressure;Samples;Min_cycle;Max_cycle;Signal;HPM_P1;HPM_P2
2023/05/25 00:01:26;;;;;;;13.40;12.70;;;;;;;;;;5030693;28;20013;-62
2023/05/25 00:03:54;;;;;;;12.27;11.68;;;;;;;;;;5027691;28;20029;-62
2023/05/25 00:06:19;;;;;;;11.90;11.38;;;;;;;;;;5032134;28;20037;-62
2023/05/25 00:08:45;;;;;;;12.45;11.85;;;;;;;;;;5031990;28;20041;-62
2023/05/25 00:11:11;;;;;;;12.60;12.00;;;;;;;;;;5032958;28;20053;-62
2023/05/25 00:13:37;;;;;;;11.93;11.32;;;;;;;;;;5030241;28;20049;-62
2023/05/25 00:16:02;;;;;;;12.05;11.45;;;;;;;;;;5026795;28;20029;-62
2023/05/25 00:18:29;;;;;;;12.20;11.60;;;;;;;;;;5026334;28;20029;-62
2023/05/25 00:20:54;;;;;;;12.70;12.10;;;;;;;;;;5028019;28;20044;-62
2023/05/25 00:23:20;;;;;;;12.75;12.13;;;;;;;;;;5038302;28;20396;-62
2023/05/25 00:25:45;;;;;;;12.82;12.13;;;;;;;;;;5025068;28;20378;-62
2023/05/25 00:28:11;;;;;;;12.10;11.50;;;;;;;;;;5031071;28;20531;-62
2023/05/25 00:30:36;;;;;;;12.20;11.60;;;;;;;;;;5025504;28;20029;-62
2023/05/25 00:33:01;;;;;;;11.95;11.35;;;;;;;;;;5028431;28;20604;-62
2023/05/25 00:35:27;;;;;;;11.57;11.07;;;;;;;;;;5024391;28;20432;-62
2023/05/25 00:37:52;;;;;;;12.13;11.52;;;;;;;;;;5029260;28;20481;-62
2023/05/25 00:40:18;;;;;;;12.35;11.75;;;;;;;;;;5032299;28;20029;-62
2023/05/25 00:42:43;;;;;;;12.15;11.55;;;;;;;;;;5031666;28;20025;-62
2023/05/25 00:45:09;;;;;;;12.73;12.07;;;;;;;;;;5029853;28;20075;-62
2023/05/25 00:47:35;;;;;;;12.63;12.00;;;;;;;;;;5029774;28;20034;-62
2023/05/25 00:50:00;;;;;;;13.32;12.63;;;;;;;;;;5029303;28;20067;-62
2023/05/25 00:52:26;;;;;;;11.82;11.23;;;;;;;;;;5023685;28;20635;-61
2023/05/25 00:54:53;;;;;;;12.68;12.00;;;;;;;;;;5030206;28;20518;-61
2023/05/25 00:57:22;;;;;;;12.10;11.50;;;;;;;;;;5029042;28;20017;-61
2023/05/25 00:59:50;;;;;;;12.38;11.77;;;;;;;;;;5028710;28;20467;-62
2023/05/25 01:02:16;;;;;;;12.00;11.40;;;;;;;;;;5029498;28;20044;-61
2023/05/25 01:05:02;;;;;;;12.20;11.60;;;;;;;;;;5030659;28;20044;-62
2023/05/25 01:07:29;;;;;;;12.80;12.10;;;;;;;;;;5028205;28;20495;-62
2023/05/25 01:09:57;;;;;;;12.90;12.20;;;;;;;;;;5030218;28;20033;-62
2023/05/25 01:12:23;;;;;;;12.07;11.48;;;;;;;;;;5028421;28;20018;-62
2023/05/25 01:14:48;;;;;;;12.43;11.82;;;;;;;;;;5026967;28;20045;-63
2023/05/25 01:17:14;;;;;;;12.18;11.57;;;;;;;;;;5027615;28;20091;-61
2023/05/25 01:19:40;;;;;;;12.20;11.60;;;;;;;;;;5028295;28;20504;-61
2023/05/25 01:22:11;;;;;;;12.27;11.68;;;;;;;;;;5030279;28;20025;-63
2023/05/25 01:24:42;;;;;;;11.82;11.32;;;;;;;;;;5029949;28;20485;-62
2023/05/25 01:27:12;;;;;;;12.07;11.48;;;;;;;;;;5025620;28;20498;-62
2023/05/25 01:29:40;;;;;;;12.13;11.52;;;;;;;;;;5029097;28;20030;-62
2023/05/25 01:32:06;;;;;;;12.13;11.52;;;;;;;;;;5030315;28;20041;-63
2023/05/25 01:34:33;;;;;;;12.32;11.73;;;;;;;;;;5028409;28;20060;-62
2023/05/25 01:36:58;;;;;;;11.60;11.05;;;;;;;;;;5027440;28;20135;-62
2023/05/25 01:39:23;;;;;;;11.70;11.20;;;;;;;;;;5027039;28;20029;-62
2023/05/25 01:41:49;;;;;;;12.00;11.40;;;;;;;;;;5032333;28;20481;-63
2023/05/25 01:44:14;;;;;;;12.40;11.80;;;;;;;;;;5027160;28;20026;-62
2023/05/25 01:46:40;;;;;;;12.10;11.50;;;;;;;;;;5024382;28;20029;-62
2023/05/25 01:49:15;;;;;;;11.88;11.30;;;;;;;;;;5026676;28;20036;-62
2023/05/25 01:51:54;;;;;;;12.70;12.10;;;;;;;;;;5029944;28;20079;-62
2023/05/25 01:54:20;;;;;;;12.38;11.77;;;;;;;;;;5030581;28;20013;-62
2023/05/25 01:56:47;;;;;;;12.18;11.57;;;;;;;;;;5034239;28;20153;-62
2023/05/25 01:59:18;;;;;;;12.88;12.18;;;;;;;;;;5026631;28;20028;-62
2023/05/25 02:01:44;;;;;;;12.82;12.13;;;;;;;;;;5025193;28;20048;-63
2023/05/25 02:04:09;;;;;;;12.77;12.07;;;;;;;;;;5024001;28;20041;-62
2023/05/25 02:06:35;;;;;;;12.50;11.88;;;;;;;;;;5024732;28;20045;-62
2023/05/25 02:09:01;;;;;;;12.02;11.43;;;;;;;;;;5025670;28;20029;-62
2023/05/25 02:11:26;;;;;;;12.65;12.00;;;;;;;;;;5025555;28;20017;-63
2023/05/25 02:13:51;;;;;;;12.30;11.70;;;;;;;;;;5026401;28;20048;-62
2023/05/25 02:16:17;;;;;;;13.02;12.32;;;;;;;;;;5026578;28;20087;-62
2023/05/25 02:18:43;;;;;;;12.00;11.40;;;;;;;;;;5026059;28;20473;-61
2023/05/25 02:21:09;;;;;;;11.38;10.88;;;;;;;;;;5028517;28;20041;-63
2023/05/25 02:23:34;;;;;;;11.88;11.27;;;;;;;;;;5022293;28;20510;-63
2023/05/25 02:25:59;;;;;;;12.75;12.05;;;;;;;;;;5029262;28;20030;-62
2023/05/25 02:28:25;;;;;;;12.63;11.98;;;;;;;;;;5028635;28;20036;-62
2023/05/25 02:30:50;;;;;;;12.18;11.57;;;;;;;;;;5029939;28;20021;-62
2023/05/25 02:33:15;;;;;;;12.73;12.02;;;;;;;;;;5025051;28;20014;-63
2023/05/25 02:35:41;;;;;;;12.52;11.90;;;;;;;;;;5027809;28;20028;-61
2023/05/25 02:38:06;;;;;;;12.50;11.90;;;;;;;;;;5029939;28;20041;-62
2023/05/25 02:40:32;;;;;;;12.30;11.70;;;;;;;;;;5022826;28;20028;-62
2023/05/25 02:42:57;;;;;;;12.25;11.65;;;;;;;;;;5028208;28;20030;-61
2023/05/25 02:45:22;;;;;;;12.40;11.80;;;;;;;;;;5028079;28;20431;-62
2023/05/25 02:47:47;;;;;;;12.10;11.50;;;;;;;;;;5027294;28;20030;-63
2023/05/25 02:50:14;;;;;;;12.43;11.82;;;;;;;;;;5030018;28;20017;-61
2023/05/25 02:52:39;;;;;;;12.18;11.57;;;;;;;;;;5025903;28;20045;-61
2023/05/25 02:55:05;;;;;;;11.93;11.32;;;;;;;;;;5029499;28;20045;-62
2023/05/25 02:57:30;;;;;;;12.80;12.10;;;;;;;;;;5024974;28;20018;-62
2023/05/25 02:59:55;;;;;;;12.23;11.63;;;;;;;;;;5025540;28;20021;-61
2023/05/25 03:02:24;;;;;;;13.27;12.57;;;;;;;;;;5026765;28;20021;-62
2023/05/25 03:04:52;;;;;;;11.77;11.18;;;;;;;;;;5029159;28;20053;-61
2023/05/25 03:07:18;;;;;;;12.13;11.52;;;;;;;;;;5020550;28;20104;-62
2023/05/25 03:09:43;;;;;;;12.20;11.60;;;;;;;;;;5026527;28;20660;-62
2023/05/25 03:12:08;;;;;;;12.20;11.60;;;;;;;;;;5024457;28;20359;-61
2023/05/25 03:14:34;;;;;;;12.63;12.00;;;;;;;;;;5028939;28;20075;-61
2023/05/25 03:16:59;;;;;;;12.02;11.43;;;;;;;;;;5025011;28;20021;-61
2023/05/25 03:19:25;;;;;;;12.23;11.63;;;;;;;;;;5029540;28;20041;-61
2023/05/25 03:21:50;;;;;;;12.23;11.63;;;;;;;;;;5026135;28;20396;-62
2023/05/25 03:24:15;;;;;;;12.20;11.60;;;;;;;;;;5032106;28;21653;-61
2023/05/25 03:26:40;;;;;;;12.73;12.13;;;;;;;;;;5032285;28;20030;-62
2023/05/25 03:29:06;;;;;;;12.60;12.00;;;;;;;;;;5026596;28;20433;-62
2023/05/25 03:31:31;;;;;;;13.05;12.35;;;;;;;;;;5027065;28;20018;-62
2023/05/25 03:33:57;;;;;;;12.20;11.60;;;;;;;;;;5025147;28;20048;-62
2023/05/25 03:36:26;;;;;;;12.57;11.98;;;;;;;;;;5028449;28;20017;-62
2023/05/25 03:38:51;;;;;;;12.38;11.77;;;;;;;;;;5023004;28;20047;-62
2023/05/25 03:41:17;;;;;;;12.32;11.73;;;;;;;;;;5032106;28;20056;-62
2023/05/25 03:43:42;;;;;;;12.15;11.55;;;;;;;;;;5032307;28;20021;-63
2023/05/25 03:46:10;;;;;;;11.90;11.32;;;;;;;;;;5029508;28;20455;-62
2023/05/25 03:48:35;;;;;;;11.77;11.27;;;;;;;;;;5028728;28;20473;-63
2023/05/25 03:51:00;;;;;;;12.02;11.43;;;;;;;;;;5030642;28;20029;-62
2023/05/25 03:53:26;;;;;;;12.18;11.57;;;;;;;;;;5029165;28;20105;-62
2023/05/25 03:55:51;;;;;;;12.25;11.65;;;;;;;;;;5030992;28;20026;-62
2023/05/25 03:58:17;;;;;;;12.65;12.05;;;;;;;;;;5028970;28;20029;-61
2023/05/25 04:00:42;;;;;;;12.65;12.05;;;;;;;;;;5027965;28;22418;-62
2023/05/25 04:03:09;;;;;;;13.18;12.48;;;;;;;;;;5031278;28;20033;-61
2023/05/25 04:05:35;;;;;;;13.00;12.32;;;;;;;;;;5029656;28;20465;-60
2023/05/25 04:08:01;;;;;;;12.63;12.02;;;;;;;;;;5028020;28;20028;-60
2023/05/25 04:10:27;;;;;;;12.18;11.57;;;;;;;;;;5031564;28;20017;-60
2023/05/25 04:12:55;;;;;;;12.10;11.50;;;;;;;;;;5035169;28;20029;-62
2023/05/25 04:15:21;;;;;;;12.13;11.52;;;;;;;;;;5028629;28;20079;-63
2023/05/25 04:17:46;;;;;;;11.85;11.30;;;;;;;;;;5027470;28;20026;-62
2023/05/25 04:20:11;;;;;;;12.48;11.88;;;;;;;;;;5026037;28;20021;-61
2023/05/25 04:22:37;;;;;;;11.77;11.20;;;;;;;;;;5031718;28;20029;-62
2023/05/25 04:25:04;;;;;;;12.10;11.50;;;;;;;;;;5030399;28;20029;-62
2023/05/25 04:27:29;;;;;;;11.90;11.35;;;;;;;;;;5026529;28;20041;-63
2023/05/25 04:29:56;;;;;;;12.60;12.00;;;;;;;;;;5024532;28;20017;-63
2023/05/25 04:32:22;;;;;;;12.50;11.90;;;;;;;;;;5024468;28;20033;-63
2023/05/25 04:34:48;;;;;;;12.65;12.05;;;;;;;;;;5021143;28;20037;-63
2023/05/25 04:37:13;;;;;;;12.40;11.80;;;;;;;;;;5016889;28;20380;-63
2023/05/25 04:39:38;;;;;;;12.60;12.00;;;;;;;;;;5016510;28;20033;-62
2023/05/25 04:42:04;;;;;;;13.05;12.45;;;;;;;;;;5025584;28;20029;-63
2023/05/25 04:44:30;;;;;;;12.30;11.70;;;;;;;;;;5031926;28;20079;-63
2023/05/25 04:46:56;;;;;;;12.00;11.50;;;;;;;;;;5029514;28;20033;-63
2023/05/25 04:49:21;;;;;;;11.90;11.40;;;;;;;;;;5031230;28;20028;-63
2023/05/25 04:51:46;;;;;;;12.32;11.73;;;;;;;;;;5031016;28;20025;-64
2023/05/25 04:54:12;;;;;;;12.63;12.02;;;;;;;;;;5032356;28;20060;-63
2023/05/25 04:56:37;;;;;;;12.93;12.32;;;;;;;;;;5030463;28;20055;-64
2023/05/25 04:59:03;;;;;;;12.83;12.23;;;;;;;;;;5029426;28;20084;-64
2023/05/25 05:01:29;;;;;;;12.10;11.60;;;;;;;;;;5029073;28;20302;-64
2023/05/25 05:03:54;;;;;;;12.30;11.77;;;;;;;;;;5022089;28;20072;-62
2023/05/25 05:06:20;;;;;;;11.98;11.48;;;;;;;;;;5027395;28;20049;-62
2023/05/25 05:08:45;;;;;;;11.98;11.48;;;;;;;;;;5028517;28;20362;-61
2023/05/25 05:11:11;;;;;;;11.95;11.45;;;;;;;;;;5029014;28;20048;-62
2023/05/25 05:13:36;;;;;;;11.50;11.00;;;;;;;;;;5026632;28;20022;-62
2023/05/25 05:16:01;;;;;;;11.83;11.33;;;;;;;;;;5030376;28;20332;-62
2023/05/25 05:18:27;;;;;;;11.77;11.27;;;;;;;;;;5027415;28;20752;-62
2023/05/25 05:20:53;;;;;;;11.80;11.30;;;;;;;;;;5029653;28;20591;-62
2023/05/25 05:23:19;;;;;;;12.48;11.88;;;;;;;;;;5029748;28;20061;-62
2023/05/25 05:25:45;;;;;;;12.43;11.82;;;;;;;;;;5026201;28;20042;-62
2023/05/25 05:28:10;;;;;;;12.63;12.02;;;;;;;;;;5022330;28;20030;-63
2023/05/25 05:30:35;;;;;;;11.90;11.40;;;;;;;;;;5026006;28;20011;-63
2023/05/25 05:33:01;;;;;;;12.73;12.13;;;;;;;;;;5026188;28;20071;-63
2023/05/25 05:35:26;;;;;;;12.00;11.50;;;;;;;;;;5030351;28;20480;-62
2023/05/25 05:37:51;;;;;;;12.13;11.63;;;;;;;;;;5030910;28;20246;-62
2023/05/25 05:40:17;;;;;;;12.60;12.00;;;;;;;;;;5032334;28;20014;-63
2023/05/25 05:42:42;;;;;;;12.13;11.63;;;;;;;;;;5028790;28;20132;-63
2023/05/25 05:45:08;;;;;;;12.80;12.20;;;;;;;;;;5021208;28;20177;-63
2023/05/25 05:47:33;;;;;;;12.10;11.60;;;;;;;;;;5027914;28;20029;-62
2023/05/25 05:49:59;;;;;;;12.10;11.60;;;;;;;;;;5029358;28;20021;-63
2023/05/25 05:52:24;;;;;;;12.00;11.50;;;;;;;;;;5029478;28;20026;-63
2023/05/25 05:54:49;;;;;;;12.18;11.68;;;;;;;;;;5026069;28;20037;-63
2023/05/25 05:57:15;;;;;;;12.48;11.88;;;;;;;;;;5024461;28;20034;-63
2023/05/25 05:59:40;;;;;;;12.15;11.65;;;;;;;;;;5022940;28;20480;-64
2023/05/25 06:02:06;;;;;;;11.90;11.40;;;;;;;;;;5027439;28;20021;-63
2023/05/25 06:04:31;;;;;;;13.30;12.70;;;;;;;;;;5019693;28;20057;-63
2023/05/25 06:06:57;;;;;;;12.77;12.18;;;;;;;;;;5026427;28;20022;-67
2023/05/25 06:09:23;;;;;;;12.23;11.73;;;;;;;;;;5018960;28;20042;-67
2023/05/25 06:11:48;;;;;;;12.30;11.80;;;;;;;;;;5026907;28;20168;-67
2023/05/25 06:14:13;;;;;;;12.37;11.87;;;;;;;;;;5019583;28;20100;-66
2023/05/25 06:16:38;;;;;;;12.48;11.90;;;;;;;;;;5028976;28;20464;-68
2023/05/25 06:19:04;;;;;;;12.20;11.70;;;;;;;;;;5025466;28;20022;-68
2023/05/25 06:21:29;;;;;;;12.25;11.75;;;;;;;;;;5027492;28;20401;-70
2023/05/25 06:23:56;;;;;;;12.60;12.00;;;;;;;;;;5027310;28;20388;-68
2023/05/25 06:26:22;;;;;;;12.07;11.57;;;;;;;;;;5027058;28;20698;-67
2023/05/25 06:28:48;;;;;;;12.73;12.13;;;;;;;;;;5024010;28;20083;-67
2023/05/25 06:31:14;;;;;;;11.95;11.45;;;;;;;;;;5025995;28;20105;-67
2023/05/25 06:33:39;;;;;;;12.00;11.50;;;;;;;;;;5025250;28;20108;-66
2023/05/25 06:36:06;;;;;;;12.27;11.77;;;;;;;;;;5026987;28;20017;-67
2023/05/25 06:38:31;;;;;;;12.18;11.68;;;;;;;;;;5020524;28;20290;-68
2023/05/25 06:41:01;;;;;;;12.00;11.50;;;;;;;;;;5026639;28;20106;-68
2023/05/25 06:43:26;;;;;;;12.70;12.10;;;;;;;;;;5033380;28;20089;-66
2023/05/25 06:45:51;;;;;;;12.40;11.85;;;;;;;;;;5031029;28;20176;-67
2023/05/25 06:48:17;;;;;;;12.17;11.67;;;;;;;;;;5019656;28;20092;-69
2023/05/25 06:50:42;;;;;;;12.60;12.00;;;;;;;;;;5025278;28;20295;-66
2023/05/25 06:53:09;;;;;;;12.52;11.93;;;;;;;;;;5022288;28;20277;-69
2023/05/25 06:55:35;;;;;;;11.93;11.43;;;;;;;;;;5028048;28;20075;-69
2023/05/25 06:58:00;;;;;;;13.40;12.80;;;;;;;;;;5026707;28;20419;-69
2023/05/25 07:00:25;;;;;;;11.80;11.30;;;;;;;;;;5031931;28;20022;-67
2023/05/25 07:02:50;;;;;;;12.87;12.27;;;;;;;;;;5031405;28;20548;-70
2023/05/25 07:05:16;;;;;;;12.43;11.83;;;;;;;;;;5033283;28;20316;-71
2023/05/25 07:07:41;;;;;;;12.68;12.07;;;;;;;;;;5029994;28;20277;-66
2023/05/25 07:10:07;;;;;;;12.57;11.98;;;;;;;;;;5031548;28;20091;-67
2023/05/25 07:12:32;;;;;;;12.55;11.95;;;;;;;;;;5032577;28;20025;-66
2023/05/25 07:14:57;;;;;;;12.65;12.05;;;;;;;;;;5031428;28;20033;-67
2023/05/25 07:17:23;;;;;;;13.07;12.48;;;;;;;;;;5027316;28;20017;-69
2023/05/25 07:19:48;;;;;;;12.55;11.95;;;;;;;;;;5030177;28;20060;-70
2023/05/25 07:22:17;;;;;;;12.18;11.68;;;;;;;;;;5032188;28;20055;-71
2023/05/25 07:24:43;;;;;;;12.85;12.25;;;;;;;;;;5031578;28;20378;-69
2023/05/25 07:27:08;;;;;;;12.07;11.57;;;;;;;;;;5030416;28;20036;-70
2023/05/25 07:29:33;;;;;;;12.05;11.55;;;;;;;;;;5030845;28;20098;-69
2023/05/25 07:31:59;;;;;;;12.65;12.05;;;;;;;;;;5029973;28;20425;-70
2023/05/25 07:34:24;;;;;;;12.27;11.73;;;;;;;;;;5032687;28;20526;-72
2023/05/25 07:36:49;;;;;;;12.47;11.87;;;;;;;;;;5025524;28;20034;-71
2023/05/25 07:39:14;;;;;;;13.23;12.63;;;;;;;;;;5034671;28;20266;-70
2023/05/25 07:41:40;;;;;;;13.18;12.57;;;;;;;;;;5028078;28;20116;-68
2023/05/25 07:44:05;;;;;;;14.00;13.30;;;;;;;;;;5026208;28;20029;-70
2023/05/25 07:46:30;;;;;;;13.55;12.93;;;;;;;;;;5028690;28;20492;-71
2023/05/25 07:48:58;;;;;;;13.77;13.07;;;;;;;;;;5026645;28;20473;-70
2023/05/25 07:51:25;;;;;;;12.82;12.23;;;;;;;;;;5025578;28;20270;-70
2023/05/25 07:53:52;;;;;;;12.38;11.77;;;;;;;;;;5023884;28;20018;-70
2023/05/25 07:56:18;;;;;;;12.55;11.95;;;;;;;;;;5031301;28;20480;-69
2023/05/25 07:58:43;;;;;;;12.07;11.48;;;;;;;;;;5029205;28;20155;-69
2023/05/25 08:01:08;;;;;;;12.70;12.10;;;;;;;;;;5031883;28;20053;-72
2023/05/25 08:03:34;;;;;;;12.30;11.70;;;;;;;;;;5035162;28;20031;-71
2023/05/25 08:05:59;;;;;;;13.13;12.52;;;;;;;;;;5029208;28;20832;-72
2023/05/25 08:08:25;;;;;;;12.85;12.25;;;;;;;;;;5029340;28;20041;-71
2023/05/25 08:10:50;;;;;;;13.18;12.57;;;;;;;;;;5026398;28;20021;-70
2023/05/25 08:13:15;;;;;;;13.18;12.57;;;;;;;;;;5031403;28;20072;-73
2023/05/25 08:15:41;;;;;;;13.00;12.40;;;;;;;;;;5025545;28;20468;-70
2023/05/25 08:18:06;;;;;;;12.70;12.10;;;;;;;;;;5026944;28;20270;-70
2023/05/25 08:20:31;;;;;;;12.30;11.70;;;;;;;;;;5023380;28;20431;-70
2023/05/25 08:22:58;;;;;;;13.73;13.02;;;;;;;;;;5028633;28;20052;-70
2023/05/25 08:25:23;;;;;;;12.48;11.88;;;;;;;;;;5032132;28;20017;-70
2023/05/25 08:27:48;;;;;;;12.13;11.57;;;;;;;;;;5027021;28;20030;-70
2023/05/25 08:30:13;;;;;;;12.52;11.93;;;;;;;;;;5029539;28;20033;-71
2023/05/25 08:32:39;;;;;;;12.97;12.37;;;;;;;;;;5034992;28;20021;-70
2023/05/25 08:35:04;;;;;;;13.18;12.57;;;;;;;;;;5041055;28;20317;-70
2023/05/25 08:37:33;;;;;;;12.27;11.68;;;;;;;;;;5030491;28;20013;-69
2023/05/25 08:40:01;;;;;;;13.98;13.27;;;;;;;;;;5027859;28;20025;-70
2023/05/25 08:42:26;;;;;;;12.00;11.45;;;;;;;;;;5032624;28;20019;-68
2023/05/25 08:44:51;;;;;;;12.68;12.07;;;;;;;;;;5030191;28;20021;-69
2023/05/25 08:47:20;;;;;;;13.10;12.50;;;;;;;;;;5035313;28;20403;-69
2023/05/25 08:49:48;;;;;;;13.02;12.43;;;;;;;;;;5026160;28;20033;-73
2023/05/25 08:52:14;;;;;;;12.55;11.95;;;;;;;;;;5028863;28;20029;-71
2023/05/25 08:54:42;;;;;;;12.63;12.02;;;;;;;;;;5030910;28;20043;-71
2023/05/25 08:57:07;;;;;;;13.10;12.50;;;;;;;;;;5027769;28;20025;-72
2023/05/25 08:59:45;;;;;;;12.73;12.13;;;;;;;;;;5030670;28;20543;-69
2023/05/25 09:02:21;;;;;;;13.32;12.73;;;;;;;;;;5034850;28;20049;-69
2023/05/25 09:04:46;;;;;;;13.23;12.63;;;;;;;;;;5025755;28;20049;-70
2023/05/25 09:07:12;;;;;;;13.15;12.55;;;;;;;;;;5030060;28;20582;-70
2023/05/25 09:09:38;;;;;;;12.77;12.18;;;;;;;;;;5026992;28;20037;-70
2023/05/25 09:12:05;;;;;;;12.85;12.25;;;;;;;;;;5026268;28;20088;-70
2023/05/25 09:14:31;;;;;;;13.57;12.90;;;;;;;;;;5026543;28;20397;-70
2023/05/25 09:16:59;;;;;;;13.23;12.63;;;;;;;;;;5029582;28;20017;-70
2023/05/25 09:19:24;;;;;;;14.10;13.40;;;;;;;;;;5025992;28;20029;-70
2023/05/25 09:21:50;;;;;;;13.02;12.43;;;;;;;;;;5034253;28;20578;-70
2023/05/25 09:24:16;;;;;;;13.23;12.63;;;;;;;;;;5031158;28;20135;-70
2023/05/25 09:26:45;;;;;;;13.85;13.15;;;;;;;;;;5030712;28;20025;-69
2023/05/25 09:29:12;;;;;;;12.98;12.38;;;;;;;;;;5038783;28;20021;-68
2023/05/25 09:31:37;;;;;;;12.65;12.05;;;;;;;;;;5027661;28;20492;-69
2023/05/25 09:34:02;;;;;;;13.52;12.82;;;;;;;;;;5028895;28;20029;-67
2023/05/25 09:36:28;;;;;;;13.52;12.88;;;;;;;;;;5029256;28;20469;-70
2023/05/25 09:38:53;;;;;;;13.57;12.88;;;;;;;;;;5023702;28;20531;-70
2023/05/25 09:41:18;;;;;;;12.80;12.20;;;;;;;;;;5028775;28;20528;-70
2023/05/25 09:43:44;;;;;;;12.93;12.32;;;;;;;;;;5022912;28;20079;-70
2023/05/25 09:46:09;;;;;;;13.38;12.75;;;;;;;;;;5031142;28;20033;-70
2023/05/25 09:48:35;;;;;;;13.30;12.70;;;;;;;;;;5018795;28;20030;-70
2023/05/25 09:51:01;;;;;;;13.00;12.40;;;;;;;;;;5025105;28;20061;-70
2023/05/25 09:53:26;;;;;;;12.65;12.05;;;;;;;;;;5025689;28;20036;-70
2023/05/25 09:55:51;;;;;;;12.90;12.30;;;;;;;;;;5026414;28;20030;-70
2023/05/25 09:58:16;;;;;;;13.10;12.50;;;;;;;;;;5023767;28;20374;-70
2023/05/25 10:00:42;;;;;;;13.73;13.03;;;;;;;;;;5032623;28;20331;-70
2023/05/25 10:03:08;;;;;;;13.80;13.10;;;;;;;;;;5026916;28;20273;-70
2023/05/25 10:05:34;;;;;;;13.25;12.65;;;;;;;;;;5026703;28;20053;-70
2023/05/25 10:08:00;;;;;;;14.20;13.50;;;;;;;;;;5021905;28;20488;-69
2023/05/25 10:10:25;;;;;;;13.32;12.70;;;;;;;;;;5023804;28;20033;-70
2023/05/25 10:12:51;;;;;;;13.00;12.40;;;;;;;;;;5026987;28;20255;-70
2023/05/25 10:15:19;;;;;;;12.90;12.30;;;;;;;;;;5025345;28;20025;-70
2023/05/25 10:17:56;;;;;;;13.30;12.68;;;;;;;;;;5023615;28;20267;-68
2023/05/25 10:20:22;;;;;;;12.40;11.80;;;;;;;;;;5019017;28;20086;-69
2023/05/25 10:22:55;;;;;;;13.35;12.68;;;;;;;;;;5031234;28;20438;-69
2023/05/25 10:25:32;;;;;;;13.10;12.50;;;;;;;;;;5025894;28;20021;-70
2023/05/25 10:28:17;;;;;;;12.07;11.48;;;;;;;;;;5025833;28;20495;-66
2023/05/25 10:30:43;;;;;;;13.15;12.55;;;;;;;;;;5019449;28;20090;-69
2023/05/25 10:33:09;;;;;;;13.73;13.02;;;;;;;;;;5030628;28;20108;-69
2023/05/25 10:35:38;;;;;;;12.70;12.10;;;;;;;;;;5024539;28;20034;-69
2023/05/25 10:38:04;;;;;;;12.95;12.35;;;;;;;;;;5023488;28;20037;-71
2023/05/25 10:40:31;;;;;;;13.15;12.55;;;;;;;;;;5024486;28;20020;-69
2023/05/25 10:42:57;;;;;;;12.60;12.00;;;;;;;;;;5025638;28;20485;-68
2023/05/25 10:45:23;;;;;;;12.82;12.23;;;;;;;;;;5020808;28;20060;-70
2023/05/25 10:47:49;;;;;;;13.15;12.55;;;;;;;;;;5023780;28;20370;-69
2023/05/25 10:50:23;;;;;;;13.38;12.70;;;;;;;;;;5026038;28;20156;-69
2023/05/25 10:53:01;;;;;;;12.95;12.35;;;;;;;;;;5025648;28;20540;-69
2023/05/25 10:55:30;;;;;;;12.30;11.70;;;;;;;;;;5024854;28;20029;-70
2023/05/25 10:58:09;;;;;;;12.38;11.77;;;;;;;;;;5024229;28;20458;-68
2023/05/25 11:00:35;;;;;;;12.70;12.10;;;;;;;;;;5020769;28;20018;-67
2023/05/25 11:03:00;;;;;;;12.77;12.18;;;;;;;;;;5023815;28;20587;-67
2023/05/25 11:05:26;;;;;;;11.52;11.02;;;;;;;;;;5025449;28;20048;-68
2023/05/25 11:07:55;;;;;;;13.73;13.02;;;;;;;;;;5019534;28;20021;-69
2023/05/25 11:10:39;;;;;;;12.52;11.93;;;;;;;;;;5022178;28;20029;-68
2023/05/25 11:13:23;;;;;;;13.05;12.45;;;;;;;;;;5024021;28;20148;-69
2023/05/25 11:16:07;;;;;;;12.70;12.10;;;;;;;;;;5022323;28;20033;-71
2023/05/25 11:18:40;;;;;;;12.35;11.75;;;;;;;;;;5025978;28;20032;-72
2023/05/25 11:21:17;;;;;;;12.70;12.10;;;;;;;;;;5021597;28;20052;-67
2023/05/25 11:23:56;;;;;;;14.25;13.55;;;;;;;;;;5019224;28;23588;-70
2023/05/25 11:26:25;;;;;;;13.43;12.73;;;;;;;;;;5019120;28;20094;-69
2023/05/25 11:28:51;;;;;;;13.65;12.95;;;;;;;;;;5019855;28;20037;-69
2023/05/25 11:31:22;;;;;;;12.85;12.25;;;;;;;;;;5026576;28;20041;-69
2023/05/25 11:33:48;;;;;;;13.63;12.93;;;;;;;;;;5056033;28;20025;-70
2023/05/25 11:36:14;;;;;;;14.23;13.52;;;;;;;;;;5025838;28;20022;-69
2023/05/25 11:38:44;;;;;;;12.93;12.32;;;;;;;;;;5024946;28;20385;-69
2023/05/25 11:41:22;;;;;;;14.20;13.50;;;;;;;;;;5026162;28;20030;-68
2023/05/25 11:43:48;;;;;;;13.15;12.55;;;;;;;;;;5029013;28;20104;-65
2023/05/25 11:46:14;;;;;;;13.68;12.98;;;;;;;;;;5028402;28;20155;-66
2023/05/25 11:48:50;;;;;;;14.07;13.38;;;;;;;;;;5031266;28;20477;-67
2023/05/25 11:51:16;;;;;;;13.73;13.02;;;;;;;;;;5024475;28;20021;-67
2023/05/25 11:53:43;;;;;;;14.10;13.40;;;;;;;;;;5030292;28;20024;-68
2023/05/25 11:56:09;;;;;;;13.55;12.85;;;;;;;;;;5032526;28;20600;-68
2023/05/25 11:58:34;;;;;;;13.75;13.05;;;;;;;;;;5032318;28;20032;-68
2023/05/25 12:01:15;;;;;;;13.32;12.63;;;;;;;;;;5029781;28;20490;-64
2023/05/25 12:03:42;;;;;;;13.40;12.70;;;;;;;;;;5032596;28;20098;-65
2023/05/25 12:06:07;;;;;;;13.77;13.07;;;;;;;;;;5035779;28;20049;-67
2023/05/25 12:08:36;;;;;;;14.02;13.32;;;;;;;;;;5027713;28;20622;-66
2023/05/25 12:11:01;;;;;;;13.07;12.48;;;;;;;;;;5028208;28;20021;-68
2023/05/25 12:13:27;;;;;;;12.25;11.65;;;;;;;;;;5030986;28;20493;-68
2023/05/25 12:15:59;;;;;;;13.40;12.70;;;;;;;;;;5027042;28;20010;-67
2023/05/25 12:18:29;;;;;;;13.43;12.75;;;;;;;;;;5030445;28;20103;-67
2023/05/25 12:20:55;;;;;;;13.85;13.15;;;;;;;;;;5029849;28;20048;-67
2023/05/25 12:23:21;;;;;;;13.95;13.25;;;;;;;;;;5028276;28;20020;-67
2023/05/25 12:25:46;;;;;;;12.95;12.35;;;;;;;;;;5025171;28;20037;-66
2023/05/25 12:28:15;;;;;;;12.65;12.05;;;;;;;;;;5020712;28;20021;-67
2023/05/25 12:30:40;;;;;;;13.02;12.43;;;;;;;;;;5029716;28;20059;-70
2023/05/25 12:33:06;;;;;;;13.32;12.70;;;;;;;;;;5029154;28;20090;-68
2023/05/25 12:35:47;;;;;;;13.10;12.50;;;;;;;;;;5027889;28;20019;-69
2023/05/25 12:38:13;;;;;;;12.90;12.30;;;;;;;;;;5028880;28;20104;-68
2023/05/25 12:40:39;;;;;;;12.25;11.65;;;;;;;;;;5029659;28;20075;-69
2023/05/25 12:43:05;;;;;;;13.93;13.23;;;;;;;;;;5030332;28;20810;-68
2023/05/25 12:45:32;;;;;;;13.25;12.63;;;;;;;;;;5026451;28;20469;-67
2023/05/25 12:47:57;;;;;;;12.90;12.30;;;;;;;;;;5030526;28;20039;-66
2023/05/25 12:50:22;;;;;;;13.02;12.43;;;;;;;;;;5029139;28;20025;-64
2023/05/25 12:52:48;;;;;;;14.27;13.57;;;;;;;;;;5027465;28;20045;-70
2023/05/25 12:55:19;;;;;;;12.85;12.25;;;;;;;;;;5038312;28;20064;-67
2023/05/25 12:57:46;;;;;;;13.40;12.75;;;;;;;;;;5022115;28;20601;-65
2023/05/25 13:00:12;;;;;;;13.23;12.63;;;;;;;;;;5021733;28;20014;-65
2023/05/25 13:02:37;;;;;;;13.52;12.88;;;;;;;;;;5024343;28;20041;-68
2023/05/25 13:05:03;;;;;;;13.15;12.55;;;;;;;;;;5022633;28;20046;-69
2023/05/25 13:07:28;;;;;;;13.52;12.82;;;;;;;;;;5020988;28;20426;-66
2023/05/25 13:09:54;;;;;;;13.32;12.68;;;;;;;;;;5022163;28;20037;-69
2023/05/25 13:12:19;;;;;;;13.03;12.43;;;;;;;;;;5019847;28;20531;-66
2023/05/25 13:14:44;;;;;;;13.23;12.57;;;;;;;;;;5021398;28;20264;-67
2023/05/25 13:17:10;;;;;;;13.40;12.70;;;;;;;;;;5022347;28;20108;-71
2023/05/25 13:19:35;;;;;;;13.73;13.02;;;;;;;;;;5023813;28;20021;-69
2023/05/25 13:22:01;;;;;;;13.68;12.98;;;;;;;;;;5021494;28;20365;-68
2023/05/25 13:24:27;;;;;;;13.57;12.88;;;;;;;;;;5027729;28;20042;-68
2023/05/25 13:26:52;;;;;;;12.45;11.85;;;;;;;;;;5027583;28;20040;-69
2023/05/25 13:29:18;;;;;;;12.88;12.27;;;;;;;;;;5030707;28;20044;-71
2023/05/25 13:31:43;;;;;;;13.23;12.52;;;;;;;;;;5030692;28;20017;-69
2023/05/25 13:34:08;;;;;;;13.40;12.73;;;;;;;;;;5023177;28;20440;-71
2023/05/25 13:36:34;;;;;;;13.80;13.10;;;;;;;;;;5020594;28;20104;-71
2023/05/25 13:39:00;;;;;;;14.70;13.90;;;;;;;;;;5020730;28;20052;-70
2023/05/25 13:41:25;;;;;;;13.15;12.55;;;;;;;;;;5014094;28;20122;-69
2023/05/25 13:43:51;;;;;;;13.32;12.68;;;;;;;;;;5019697;28;20477;-70
2023/05/25 13:46:17;;;;;;;13.38;12.68;;;;;;;;;;5021882;28;20029;-69
2023/05/25 13:48:46;;;;;;;13.88;13.18;;;;;;;;;;5026319;28;20029;-68
2023/05/25 13:51:12;;;;;;;12.88;12.27;;;;;;;;;;5022976;28;20107;-67
2023/05/25 13:53:37;;;;;;;12.57;11.98;;;;;;;;;;5019188;28;20563;-68
2023/05/25 13:56:03;;;;;;;14.38;13.68;;;;;;;;;;5017037;28;20052;-68
2023/05/25 13:58:28;;;;;;;13.07;12.48;;;;;;;;;;5023105;28;20104;-68
2023/05/25 14:00:55;;;;;;;13.48;12.77;;;;;;;;;;5017572;28;20338;-71
2023/05/25 14:03:21;;;;;;;13.20;12.60;;;;;;;;;;5021337;28;20025;-69
2023/05/25 14:05:46;;;;;;;12.90;12.30;;;;;;;;;;5025709;28;20497;-72
2023/05/25 14:08:12;;;;;;;12.70;12.10;;;;;;;;;;5034559;28;20030;-71
2023/05/25 14:10:37;;;;;;;12.75;12.15;;;;;;;;;;5028453;28;20777;-70
2023/05/25 14:13:03;;;;;;;13.05;12.45;;;;;;;;;;5019487;28;20021;-68